sensor_id;sensor_type;location;lat;lon;timestamp;temperature;humidity
53876;DHT22;39789;53.216;5.624;2023-04-03T00:01:26;2.40;99.90
53876;DHT22;39789;53.216;5.624;2023-04-03T00:03:51;2.40;99.90
53876;DHT22;39789;53.216;5.624;2023-04-03T00:06:17;2.40;99.90
53876;DHT22;39789;53.216;5.624;2023-04-03T00:08:43;2.30;99.90
53876;DHT22;39789;53.216;5.624;2023-04-03T00:11:09;2.30;99.90
53876;DHT22;39789;53.216;5.624;2023-04-03T00:13:35;2.30;99.90
53876;DHT22;39789;53.216;5.624;2023-04-03T00:16:01;2.30;99.90
53876;DHT22;39789;53.216;5.624;2023-04-03T00:18:28;2.30;99.90
53876;DHT22;39789;53.216;5.624;2023-04-03T00:20:54;2.20;99.90
53876;DHT22;39789;53.216;5.624;2023-04-03T00:23:20;2.20;99.90
53876;DHT22;39789;53.216;5.624;2023-04-03T00:25:45;2.20;99.90
53876;DHT22;39789;53.216;5.624;2023-04-03T00:28:11;2.40;99.90
53876;DHT22;39789;53.216;5.624;2023-04-03T00:30:37;2.30;99.90
53876;DHT22;39789;53.216;5.624;2023-04-03T00:33:02;2.10;99.90
53876;DHT22;39789;53.216;5.624;2023-04-03T00:35:28;2.10;99.90
53876;DHT22;39789;53.216;5.624;2023-04-03T00:37:55;2.30;99.90
53876;DHT22;39789;53.216;5.624;2023-04-03T00:40:23;2.00;99.90
53876;DHT22;39789;53.216;5.624;2023-04-03T00:42:52;2.00;99.90
53876;DHT22;39789;53.216;5.624;2023-04-03T00:45:30;2.00;99.90
53876;DHT22;39789;53.216;5.624;2023-04-03T00:47:56;2.00;99.90
53876;DHT22;39789;53.216;5.624;2023-04-03T00:50:26;1.90;99.90
53876;DHT22;39789;53.216;5.624;2023-04-03T00:52:52;2.30;99.90
53876;DHT22;39789;53.216;5.624;2023-04-03T00:55:18;2.30;99.90
53876;DHT22;39789;53.216;5.624;2023-04-03T00:57:45;1.80;99.90
53876;DHT22;39789;53.216;5.624;2023-04-03T01:00:14;1.90;99.90
53876;DHT22;39789;53.216;5.624;2023-04-03T01:02:41;1.80;99.90
53876;DHT22;39789;53.216;5.624;2023-04-03T01:05:07;2.30;99.90
53876;DHT22;39789;53.216;5.624;2023-04-03T01:07:33;1.80;99.90
53876;DHT22;39789;53.216;5.624;2023-04-03T01:10:04;2.50;99.90
53876;DHT22;39789;53.216;5.624;2023-04-03T01:12:35;1.70;99.90
53876;DHT22;39789;53.216;5.624;2023-04-03T01:25:48;1.60;99.90
53876;DHT22;39789;53.216;5.624;2023-04-03T01:28:21;1.60;99.90
53876;DHT22;39789;53.216;5.624;2023-04-03T01:33:43;1.50;99.90
53876;DHT22;39789;53.216;5.624;2023-04-03T01:36:10;2.00;99.90
53876;DHT22;39789;53.216;5.624;2023-04-03T01:38:38;2.30;99.90
53876;DHT22;39789;53.216;5.624;2023-04-03T01:41:03;1.50;99.90
53876;DHT22;39789;53.216;5.624;2023-04-03T01:43:29;1.50;99.90
53876;DHT22;39789;53.216;5.624;2023-04-03T01:45:54;2.30;99.90
53876;DHT22;39789;53.216;5.624;2023-04-03T01:48:21;2.00;99.90
53876;DHT22;39789;53.216;5.624;2023-04-03T01:50:46;1.40;99.90
53876;DHT22;39789;53.216;5.624;2023-04-03T01:53:13;1.90;99.90
53876;DHT22;39789;53.216;5.624;2023-04-03T01:55:38;1.70;99.90
53876;DHT22;39789;53.216;5.624;2023-04-03T01:58:04;2.00;99.90
53876;DHT22;39789;53.216;5.624;2023-04-03T02:00:29;1.70;99.90
53876;DHT22;39789;53.216;5.624;2023-04-03T02:02:56;2.40;99.90
53876;DHT22;39789;53.216;5.624;2023-04-03T02:05:22;2.30;99.90
53876;DHT22;39789;53.216;5.624;2023-04-03T02:07:47;1.30;99.90
53876;DHT22;39789;53.216;5.624;2023-04-03T02:10:13;1.40;99.90
53876;DHT22;39789;53.216;5.624;2023-04-03T02:12:39;1.70;99.90
53876;DHT22;39789;53.216;5.624;2023-04-03T02:15:05;2.10;99.90
53876;DHT22;39789;53.216;5.624;2023-04-03T02:17:30;1.20;99.90
53876;DHT22;39789;53.216;5.624;2023-04-03T02:19:56;1.50;99.90
53876;DHT22;39789;53.216;5.624;2023-04-03T02:22:21;2.10;99.90
53876;DHT22;39789;53.216;5.624;2023-04-03T02:24:47;1.20;99.90
53876;DHT22;39789;53.216;5.624;2023-04-03T02:27:13;1.60;99.90
53876;DHT22;39789;53.216;5.624;2023-04-03T02:29:39;1.90;99.90
53876;DHT22;39789;53.216;5.624;2023-04-03T02:32:04;1.60;99.90
53876;DHT22;39789;53.216;5.624;2023-04-03T02:34:30;1.90;99.90
53876;DHT22;39789;53.216;5.624;2023-04-03T02:36:56;1.40;99.90
53876;DHT22;39789;53.216;5.624;2023-04-03T02:39:21;1.00;99.90
53876;DHT22;39789;53.216;5.624;2023-04-03T02:41:47;1.80;99.90
53876;DHT22;39789;53.216;5.624;2023-04-03T02:44:12;1.00;99.90
53876;DHT22;39789;53.216;5.624;2023-04-03T02:46:38;2.00;99.90
53876;DHT22;39789;53.216;5.624;2023-04-03T02:49:04;1.00;99.90
53876;DHT22;39789;53.216;5.624;2023-04-03T02:51:30;0.90;99.90
53876;DHT22;39789;53.216;5.624;2023-04-03T02:53:56;0.90;99.90
53876;DHT22;39789;53.216;5.624;2023-04-03T02:56:21;1.70;99.90
53876;DHT22;39789;53.216;5.624;2023-04-03T02:58:47;1.70;99.90
53876;DHT22;39789;53.216;5.624;2023-04-03T03:01:12;1.00;99.90
53876;DHT22;39789;53.216;5.624;2023-04-03T03:03:38;1.30;99.90
53876;DHT22;39789;53.216;5.624;2023-04-03T03:06:09;1.70;99.90
53876;DHT22;39789;53.216;5.624;2023-04-03T03:08:35;0.90;99.90
53876;DHT22;39789;53.216;5.624;2023-04-03T03:11:02;1.50;99.90
53876;DHT22;39789;53.216;5.624;2023-04-03T03:13:27;0.90;99.90
53876;DHT22;39789;53.216;5.624;2023-04-03T03:15:53;0.80;99.90
53876;DHT22;39789;53.216;5.624;2023-04-03T03:18:18;1.20;99.90
53876;DHT22;39789;53.216;5.624;2023-04-03T03:20:44;1.30;99.90
53876;DHT22;39789;53.216;5.624;2023-04-03T03:23:10;1.20;99.90
53876;DHT22;39789;53.216;5.624;2023-04-03T03:25:38;1.20;99.90
53876;DHT22;39789;53.216;5.624;2023-04-03T03:28:04;1.20;99.90
53876;DHT22;39789;53.216;5.624;2023-04-03T03:30:30;0.70;99.90
53876;DHT22;39789;53.216;5.624;2023-04-03T03:32:55;1.10;99.90
53876;DHT22;39789;53.216;5.624;2023-04-03T03:35:21;0.90;99.90
53876;DHT22;39789;53.216;5.624;2023-04-03T03:37:46;1.00;99.90
53876;DHT22;39789;53.216;5.624;2023-04-03T03:40:12;0.60;99.90
53876;DHT22;39789;53.216;5.624;2023-04-03T03:42:39;0.60;99.90
53876;DHT22;39789;53.216;5.624;2023-04-03T03:45:05;1.60;99.90
53876;DHT22;39789;53.216;5.624;2023-04-03T03:47:31;0.60;99.90
53876;DHT22;39789;53.216;5.624;2023-04-03T03:49:56;1.30;99.90
53876;DHT22;39789;53.216;5.624;2023-04-03T03:52:22;1.40;99.90
53876;DHT22;39789;53.216;5.624;2023-04-03T03:54:47;1.60;99.90
53876;DHT22;39789;53.216;5.624;2023-04-03T03:57:13;0.80;99.90
53876;DHT22;39789;53.216;5.624;2023-04-03T03:59:39;0.50;99.90
53876;DHT22;39789;53.216;5.624;2023-04-03T04:02:07;0.50;99.90
53876;DHT22;39789;53.216;5.624;2023-04-03T04:04:33;0.60;99.90
53876;DHT22;39789;53.216;5.624;2023-04-03T04:06:58;0.50;99.90
53876;DHT22;39789;53.216;5.624;2023-04-03T04:09:26;0.60;99.90
53876;DHT22;39789;53.216;5.624;2023-04-03T04:11:53;0.50;99.90
53876;DHT22;39789;53.216;5.624;2023-04-03T04:14:19;0.50;99.90
53876;DHT22;39789;53.216;5.624;2023-04-03T04:16:46;0.70;99.90
53876;DHT22;39789;53.216;5.624;2023-04-03T04:19:12;0.40;99.90
53876;DHT22;39789;53.216;5.624;2023-04-03T04:21:38;0.50;99.90
53876;DHT22;39789;53.216;5.624;2023-04-03T04:24:03;0.40;99.90
53876;DHT22;39789;53.216;5.624;2023-04-03T04:26:29;0.40;99.90
53876;DHT22;39789;53.216;5.624;2023-04-03T04:28:55;0.30;99.90
53876;DHT22;39789;53.216;5.624;2023-04-03T04:31:20;0.30;99.90
53876;DHT22;39789;53.216;5.624;2023-04-03T04:33:46;0.30;99.90
53876;DHT22;39789;53.216;5.624;2023-04-03T04:36:11;0.30;99.90
53876;DHT22;39789;53.216;5.624;2023-04-03T04:38:37;0.30;99.90
53876;DHT22;39789;53.216;5.624;2023-04-03T04:41:03;0.30;99.90
53876;DHT22;39789;53.216;5.624;2023-04-03T04:43:29;0.30;99.90
53876;DHT22;39789;53.216;5.624;2023-04-03T04:46:06;0.50;99.90
53876;DHT22;39789;53.216;5.624;2023-04-03T04:48:32;0.30;99.90
53876;DHT22;39789;53.216;5.624;2023-04-03T04:50:57;0.80;99.90
53876;DHT22;39789;53.216;5.624;2023-04-03T04:53:23;0.40;99.90
53876;DHT22;39789;53.216;5.624;2023-04-03T04:55:49;0.20;99.90
53876;DHT22;39789;53.216;5.624;2023-04-03T04:58:14;0.40;99.90
53876;DHT22;39789;53.216;5.624;2023-04-03T05:00:41;0.10;99.90
53876;DHT22;39789;53.216;5.624;2023-04-03T05:03:06;0.30;99.90
53876;DHT22;39789;53.216;5.624;2023-04-03T05:05:32;0.10;99.90
53876;DHT22;39789;53.216;5.624;2023-04-03T05:07:58;-1.40;99.90
53876;DHT22;39789;53.216;5.624;2023-04-03T05:10:23;0.70;99.90
53876;DHT22;39789;53.216;5.624;2023-04-03T05:12:49;0.10;99.90
53876;DHT22;39789;53.216;5.624;2023-04-03T05:15:14;0.70;99.90
53876;DHT22;39789;53.216;5.624;2023-04-03T05:17:40;0.10;99.90
53876;DHT22;39789;53.216;5.624;2023-04-03T05:20:06;0.10;99.90
53876;DHT22;39789;53.216;5.624;2023-04-03T05:22:32;0.20;99.90
53876;DHT22;39789;53.216;5.624;2023-04-03T05:24:57;0.50;99.90
53876;DHT22;39789;53.216;5.624;2023-04-03T05:27:23;0.30;99.90
53876;DHT22;39789;53.216;5.624;2023-04-03T05:29:50;0.30;99.90
53876;DHT22;39789;53.216;5.624;2023-04-03T05:32:16;0.40;99.90
53876;DHT22;39789;53.216;5.624;2023-04-03T05:34:41;0.60;99.90
53876;DHT22;39789;53.216;5.624;2023-04-03T05:37:07;0.90;99.90
53876;DHT22;39789;53.216;5.624;2023-04-03T05:39:33;1.40;99.90
53876;DHT22;39789;53.216;5.624;2023-04-03T05:41:59;1.80;99.90
53876;DHT22;39789;53.216;5.624;2023-04-03T05:44:24;2.20;99.90
53876;DHT22;39789;53.216;5.624;2023-04-03T05:46:50;2.50;99.90
53876;DHT22;39789;53.216;5.624;2023-04-03T05:49:16;2.70;99.90
53876;DHT22;39789;53.216;5.624;2023-04-03T05:51:41;2.90;99.90
53876;DHT22;39789;53.216;5.624;2023-04-03T05:54:28;2.80;99.90
53876;DHT22;39789;53.216;5.624;2023-04-03T05:56:54;2.90;99.90
53876;DHT22;39789;53.216;5.624;2023-04-03T05:59:21;3.00;99.90
53876;DHT22;39789;53.216;5.624;2023-04-03T06:01:47;3.20;99.90
53876;DHT22;39789;53.216;5.624;2023-04-03T06:04:13;3.30;99.90
53876;DHT22;39789;53.216;5.624;2023-04-03T06:06:50;3.00;99.90
53876;DHT22;39789;53.216;5.624;2023-04-03T06:09:25;2.60;99.90
53876;DHT22;39789;53.216;5.624;2023-04-03T06:11:52;2.60;99.90
53876;DHT22;39789;53.216;5.624;2023-04-03T06:14:18;2.60;99.90
53876;DHT22;39789;53.216;5.624;2023-04-03T06:16:44;2.60;99.90
53876;DHT22;39789;53.216;5.624;2023-04-03T06:19:11;2.70;99.90
53876;DHT22;39789;53.216;5.624;2023-04-03T06:21:38;2.80;99.90
53876;DHT22;39789;53.216;5.624;2023-04-03T06:24:04;3.00;99.90
53876;DHT22;39789;53.216;5.624;2023-04-03T06:26:30;3.30;99.90
53876;DHT22;39789;53.216;5.624;2023-04-03T06:28:56;3.60;99.90
53876;DHT22;39789;53.216;5.624;2023-04-03T06:31:21;4.00;99.90
53876;DHT22;39789;53.216;5.624;2023-04-03T06:33:47;4.10;99.90
53876;DHT22;39789;53.216;5.624;2023-04-03T06:36:13;3.80;99.90
53876;DHT22;39789;53.216;5.624;2023-04-03T06:38:39;3.50;99.90
53876;DHT22;39789;53.216;5.624;2023-04-03T06:41:04;3.40;99.90
53876;DHT22;39789;53.216;5.624;2023-04-03T06:43:30;3.50;99.90
53876;DHT22;39789;53.216;5.624;2023-04-03T06:45:58;3.70;99.90
53876;DHT22;39789;53.216;5.624;2023-04-03T06:48:24;3.90;99.90
53876;DHT22;39789;53.216;5.624;2023-04-03T06:50:50;4.30;99.90
53876;DHT22;39789;53.216;5.624;2023-04-03T06:53:15;4.40;99.90
53876;DHT22;39789;53.216;5.624;2023-04-03T06:55:41;4.40;99.90
53876;DHT22;39789;53.216;5.624;2023-04-03T06:58:07;4.30;99.90
53876;DHT22;39789;53.216;5.624;2023-04-03T07:00:33;4.30;99.90
53876;DHT22;39789;53.216;5.624;2023-04-03T07:02:59;4.50;99.90
53876;DHT22;39789;53.216;5.624;2023-04-03T07:05:25;4.70;99.90
53876;DHT22;39789;53.216;5.624;2023-04-03T07:07:52;4.70;99.90
53876;DHT22;39789;53.216;5.624;2023-04-03T07:10:17;4.60;99.90
53876;DHT22;39789;53.216;5.624;2023-04-03T07:12:43;4.50;99.90
53876;DHT22;39789;53.216;5.624;2023-04-03T07:15:09;4.80;99.90
53876;DHT22;39789;53.216;5.624;2023-04-03T07:17:35;4.90;99.90
53876;DHT22;39789;53.216;5.624;2023-04-03T07:20:02;4.90;99.90
53876;DHT22;39789;53.216;5.624;2023-04-03T07:22:29;5.10;99.90
53876;DHT22;39789;53.216;5.624;2023-04-03T07:24:55;5.30;99.90
53876;DHT22;39789;53.216;5.624;2023-04-03T07:27:21;5.30;99.90
53876;DHT22;39789;53.216;5.624;2023-04-03T07:29:46;5.40;99.90
53876;DHT22;39789;53.216;5.624;2023-04-03T07:32:14;5.50;99.90
53876;DHT22;39789;53.216;5.624;2023-04-03T07:34:40;5.70;99.90
53876;DHT22;39789;53.216;5.624;2023-04-03T07:37:05;5.80;99.90
53876;DHT22;39789;53.216;5.624;2023-04-03T07:39:32;6.00;99.90
53876;DHT22;39789;53.216;5.624;2023-04-03T07:41:57;6.10;99.90
53876;DHT22;39789;53.216;5.624;2023-04-03T07:44:23;6.20;99.90
53876;DHT22;39789;53.216;5.624;2023-04-03T07:46:49;6.50;99.90
53876;DHT22;39789;53.216;5.624;2023-04-03T07:49:16;6.70;99.90
53876;DHT22;39789;53.216;5.624;2023-04-03T07:51:43;6.90;99.90
53876;DHT22;39789;53.216;5.624;2023-04-03T07:54:09;7.20;99.90
53876;DHT22;39789;53.216;5.624;2023-04-03T07:56:35;7.40;99.90
53876;DHT22;39789;53.216;5.624;2023-04-03T07:59:00;7.50;99.90
53876;DHT22;39789;53.216;5.624;2023-04-03T08:01:26;7.40;99.90
53876;DHT22;39789;53.216;5.624;2023-04-03T08:03:52;7.40;99.90
53876;DHT22;39789;53.216;5.624;2023-04-03T08:06:17;7.40;99.90
53876;DHT22;39789;53.216;5.624;2023-04-03T08:08:43;7.50;99.90
53876;DHT22;39789;53.216;5.624;2023-04-03T08:11:09;7.40;99.90
53876;DHT22;39789;53.216;5.624;2023-04-03T08:13:36;6.70;99.90
53876;DHT22;39789;53.216;5.624;2023-04-03T08:16:17;6.10;99.90
53876;DHT22;39789;53.216;5.624;2023-04-03T08:18:43;5.80;99.90
53876;DHT22;39789;53.216;5.624;2023-04-03T08:21:10;5.70;99.90
53876;DHT22;39789;53.216;5.624;2023-04-03T08:23:37;5.60;99.90
53876;DHT22;39789;53.216;5.624;2023-04-03T08:26:14;5.60;99.90
53876;DHT22;39789;53.216;5.624;2023-04-03T08:28:41;5.50;99.90
53876;DHT22;39789;53.216;5.624;2023-04-03T08:31:10;5.50;99.90
53876;DHT22;39789;53.216;5.624;2023-04-03T08:33:37;5.60;99.90
53876;DHT22;39789;53.216;5.624;2023-04-03T08:36:05;5.70;99.90
53876;DHT22;39789;53.216;5.624;2023-04-03T08:38:31;5.70;99.90
53876;DHT22;39789;53.216;5.624;2023-04-03T08:41:04;5.80;99.90
53876;DHT22;39789;53.216;5.624;2023-04-03T08:43:59;5.80;99.90
53876;DHT22;39789;53.216;5.624;2023-04-03T08:49:04;5.90;99.90
53876;DHT22;39789;53.216;5.624;2023-04-03T08:51:33;6.00;99.90
53876;DHT22;39789;53.216;5.624;2023-04-03T08:54:05;6.10;99.90
53876;DHT22;39789;53.216;5.624;2023-04-03T08:56:33;6.20;99.90
53876;DHT22;39789;53.216;5.624;2023-04-03T08:59:12;6.20;99.90
53876;DHT22;39789;53.216;5.624;2023-04-03T09:01:39;6.30;99.90
53876;DHT22;39789;53.216;5.624;2023-04-03T09:04:14;6.40;99.90
53876;DHT22;39789;53.216;5.624;2023-04-03T09:06:55;6.40;99.90
53876;DHT22;39789;53.216;5.624;2023-04-03T09:12:17;6.60;99.90
53876;DHT22;39789;53.216;5.624;2023-04-03T09:15:02;6.60;99.90
53876;DHT22;39789;53.216;5.624;2023-04-03T09:22:58;6.60;99.90
53876;DHT22;39789;53.216;5.624;2023-04-03T09:25:33;6.60;99.90
53876;DHT22;39789;53.216;5.624;2023-04-03T09:28:03;6.60;99.90
53876;DHT22;39789;53.216;5.624;2023-04-03T09:30:29;7.10;99.90
53876;DHT22;39789;53.216;5.624;2023-04-03T09:32:56;6.80;99.90
53876;DHT22;39789;53.216;5.624;2023-04-03T09:35:27;6.90;99.90
53876;DHT22;39789;53.216;5.624;2023-04-03T09:42:50;7.10;99.90
53876;DHT22;39789;53.216;5.624;2023-04-03T09:45:34;7.10;99.90
53876;DHT22;39789;53.216;5.624;2023-04-03T09:48:12;7.10;99.90
53876;DHT22;39789;53.216;5.624;2023-04-03T09:53:29;7.30;99.90
53876;DHT22;39789;53.216;5.624;2023-04-03T09:55:55;7.20;99.90
53876;DHT22;39789;53.216;5.624;2023-04-03T09:58:29;7.30;99.90
53876;DHT22;39789;53.216;5.624;2023-04-03T10:01:01;7.40;99.90
53876;DHT22;39789;53.216;5.624;2023-04-03T10:03:33;7.40;99.90
53876;DHT22;39789;53.216;5.624;2023-04-03T10:06:00;7.40;99.80
53876;DHT22;39789;53.216;5.624;2023-04-03T10:08:32;7.40;99.70
53876;DHT22;39789;53.216;5.624;2023-04-03T10:13:53;7.40;99.60
53876;DHT22;39789;53.216;5.624;2023-04-03T10:16:46;7.50;99.10
53876;DHT22;39789;53.216;5.624;2023-04-03T10:19:33;7.50;96.20
53876;DHT22;39789;53.216;5.624;2023-04-03T10:25:04;7.60;99.20
53876;DHT22;39789;53.216;5.624;2023-04-03T10:27:49;7.70;98.90
53876;DHT22;39789;53.216;5.624;2023-04-03T10:30:28;7.80;99.00
53876;DHT22;39789;53.216;5.624;2023-04-03T10:33:09;7.80;99.10
53876;DHT22;39789;53.216;5.624;2023-04-03T10:38:24;7.90;97.60
53876;DHT22;39789;53.216;5.624;2023-04-03T10:41:03;7.90;97.00
53876;DHT22;39789;53.216;5.624;2023-04-03T10:46:43;7.90;98.70
53876;DHT22;39789;53.216;5.624;2023-04-03T10:49:19;8.00;97.50
53876;DHT22;39789;53.216;5.624;2023-04-03T10:51:56;8.00;96.90
53876;DHT22;39789;53.216;5.624;2023-04-03T10:54:29;8.00;95.80
53876;DHT22;39789;53.216;5.624;2023-04-03T10:57:01;7.90;96.10
53876;DHT22;39789;53.216;5.624;2023-04-03T11:02:23;8.00;95.90
53876;DHT22;39789;53.216;5.624;2023-04-03T11:05:00;8.00;96.30
53876;DHT22;39789;53.216;5.624;2023-04-03T11:07:29;8.00;95.10
53876;DHT22;39789;53.216;5.624;2023-04-03T11:10:02;8.10;97.30
53876;DHT22;39789;53.216;5.624;2023-04-03T11:15:02;8.30;96.00
53876;DHT22;39789;53.216;5.624;2023-04-03T11:17:52;8.20;95.50
53876;DHT22;39789;53.216;5.624;2023-04-03T11:20:23;8.20;95.00
53876;DHT22;39789;53.216;5.624;2023-04-03T11:25:50;8.20;95.40
53876;DHT22;39789;53.216;5.624;2023-04-03T11:28:18;8.20;94.70
53876;DHT22;39789;53.216;5.624;2023-04-03T11:31:32;8.20;95.90
53876;DHT22;39789;53.216;5.624;2023-04-03T11:34:08;8.30;96.00
53876;DHT22;39789;53.216;5.624;2023-04-03T11:36:38;8.90;95.70
53876;DHT22;39789;53.216;5.624;2023-04-03T11:39:20;8.40;94.80
53876;DHT22;39789;53.216;5.624;2023-04-03T11:41:49;8.30;94.70
53876;DHT22;39789;53.216;5.624;2023-04-03T11:44:37;8.40;96.40
53876;DHT22;39789;53.216;5.624;2023-04-03T11:47:04;8.40;94.80
53876;DHT22;39789;53.216;5.624;2023-04-03T12:16:27;8.70;96.20
53876;DHT22;39789;53.216;5.624;2023-04-03T12:45:25;8.90;95.20
53876;DHT22;39789;53.216;5.624;2023-04-03T12:47:54;8.90;95.00
53876;DHT22;39789;53.216;5.624;2023-04-03T12:50:23;8.90;95.20
53876;DHT22;39789;53.216;5.624;2023-04-03T12:52:59;8.90;94.60
53876;DHT22;39789;53.216;5.624;2023-04-03T12:55:27;8.90;95.80
53876;DHT22;39789;53.216;5.624;2023-04-03T12:57:53;8.90;95.80
53876;DHT22;39789;53.216;5.624;2023-04-03T13:00:33;9.00;95.50
53876;DHT22;39789;53.216;5.624;2023-04-03T13:03:01;9.00;93.50
53876;DHT22;39789;53.216;5.624;2023-04-03T13:05:28;8.90;93.70
53876;DHT22;39789;53.216;5.624;2023-04-03T13:08:00;8.90;93.70
53876;DHT22;39789;53.216;5.624;2023-04-03T13:10:27;8.90;93.60
53876;DHT22;39789;53.216;5.624;2023-04-03T13:12:55;8.90;93.90
53876;DHT22;39789;53.216;5.624;2023-04-03T13:17:48;8.90;93.70
53876;DHT22;39789;53.216;5.624;2023-04-03T13:20:20;8.90;93.50
53876;DHT22;39789;53.216;5.624;2023-04-03T13:22:49;8.90;93.80
53876;DHT22;39789;53.216;5.624;2023-04-03T13:25:20;8.90;94.10
53876;DHT22;39789;53.216;5.624;2023-04-03T13:27:46;8.90;94.00
53876;DHT22;39789;53.216;5.624;2023-04-03T13:30:27;9.00;94.50
53876;DHT22;39789;53.216;5.624;2023-04-03T13:32:57;9.00;94.70
53876;DHT22;39789;53.216;5.624;2023-04-03T13:35:32;9.10;93.90
53876;DHT22;39789;53.216;5.624;2023-04-03T13:38:02;9.10;94.20
53876;DHT22;39789;53.216;5.624;2023-04-03T13:40:28;9.10;94.50
53876;DHT22;39789;53.216;5.624;2023-04-03T13:43:04;9.20;94.50
53876;DHT22;39789;53.216;5.624;2023-04-03T13:45:33;9.20;94.90
53876;DHT22;39789;53.216;5.624;2023-04-03T13:48:18;9.20;95.00
53876;DHT22;39789;53.216;5.624;2023-04-03T13:51:12;9.20;94.10
53876;DHT22;39789;53.216;5.624;2023-04-03T13:56:35;9.20;94.40
53876;DHT22;39789;53.216;5.624;2023-04-03T14:01:55;9.20;93.60
53876;DHT22;39789;53.216;5.624;2023-04-03T14:07:02;9.20;94.70
53876;DHT22;39789;53.216;5.624;2023-04-03T14:09:28;9.20;93.50
53876;DHT22;39789;53.216;5.624;2023-04-03T14:11:57;9.10;93.70
53876;DHT22;39789;53.216;5.624;2023-04-03T14:14:27;9.10;93.70
53876;DHT22;39789;53.216;5.624;2023-04-03T14:16:57;9.10;94.80
53876;DHT22;39789;53.216;5.624;2023-04-03T14:19:29;9.20;95.70
53876;DHT22;39789;53.216;5.624;2023-04-03T14:21:56;9.20;95.70
53876;DHT22;39789;53.216;5.624;2023-04-03T14:24:23;9.30;95.40
53876;DHT22;39789;53.216;5.624;2023-04-03T14:26:50;9.30;95.20
53876;DHT22;39789;53.216;5.624;2023-04-03T14:29:17;9.30;94.30
53876;DHT22;39789;53.216;5.624;2023-04-03T14:31:44;9.20;94.10
53876;DHT22;39789;53.216;5.624;2023-04-03T14:34:14;9.20;94.10
53876;DHT22;39789;53.216;5.624;2023-04-03T14:36:41;9.10;93.50
53876;DHT22;39789;53.216;5.624;2023-04-03T14:39:10;9.10;94.90
53876;DHT22;39789;53.216;5.624;2023-04-03T14:41:36;9.10;94.30
53876;DHT22;39789;53.216;5.624;2023-04-03T14:44:02;9.10;94.20
53876;DHT22;39789;53.216;5.624;2023-04-03T14:46:34;9.10;94.30
53876;DHT22;39789;53.216;5.624;2023-04-03T14:49:02;9.10;94.10
53876;DHT22;39789;53.216;5.624;2023-04-03T14:51:28;9.10;93.80
53876;DHT22;39789;53.216;5.624;2023-04-03T14:53:53;9.00;94.50
53876;DHT22;39789;53.216;5.624;2023-04-03T14:56:29;8.90;93.70
53876;DHT22;39789;53.216;5.624;2023-04-03T14:58:59;9.00;94.10
53876;DHT22;39789;53.216;5.624;2023-04-03T15:01:27;9.00;93.70
53876;DHT22;39789;53.216;5.624;2023-04-03T15:03:53;9.00;94.10
53876;DHT22;39789;53.216;5.624;2023-04-03T15:06:18;9.00;94.30
53876;DHT22;39789;53.216;5.624;2023-04-03T15:08:46;9.00;93.70
53876;DHT22;39789;53.216;5.624;2023-04-03T15:11:13;9.00;94.20
53876;DHT22;39789;53.216;5.624;2023-04-03T15:13:39;8.90;94.10
53876;DHT22;39789;53.216;5.624;2023-04-03T15:16:06;8.90;94.70
53876;DHT22;39789;53.216;5.624;2023-04-03T15:18:38;8.90;94.30
53876;DHT22;39789;53.216;5.624;2023-04-03T15:21:04;8.90;94.30
53876;DHT22;39789;53.216;5.624;2023-04-03T15:23:30;8.80;95.00
53876;DHT22;39789;53.216;5.624;2023-04-03T15:25:56;8.80;96.10
53876;DHT22;39789;53.216;5.624;2023-04-03T15:28:27;8.80;97.80
53876;DHT22;39789;53.216;5.624;2023-04-03T15:30:53;8.80;97.70
53876;DHT22;39789;53.216;5.624;2023-04-03T15:33:19;8.80;98.10
53876;DHT22;39789;53.216;5.624;2023-04-03T15:35:45;8.70;98.20
53876;DHT22;39789;53.216;5.624;2023-04-03T15:38:10;8.60;98.40
53876;DHT22;39789;53.216;5.624;2023-04-03T15:40:36;8.50;98.80
53876;DHT22;39789;53.216;5.624;2023-04-03T15:43:02;8.40;99.60
53876;DHT22;39789;53.216;5.624;2023-04-03T15:45:29;8.40;99.60
53876;DHT22;39789;53.216;5.624;2023-04-03T15:47:56;8.30;99.70
53876;DHT22;39789;53.216;5.624;2023-04-03T15:50:22;8.30;99.90
53876;DHT22;39789;53.216;5.624;2023-04-03T15:52:49;8.30;99.80
53876;DHT22;39789;53.216;5.624;2023-04-03T15:55:27;8.20;99.30
53876;DHT22;39789;53.216;5.624;2023-04-03T15:57:53;8.20;99.80
53876;DHT22;39789;53.216;5.624;2023-04-03T16:00:19;8.10;99.90
53876;DHT22;39789;53.216;5.624;2023-04-03T16:02:47;8.10;99.80
53876;DHT22;39789;53.216;5.624;2023-04-03T16:05:15;8.10;99.80
53876;DHT22;39789;53.216;5.624;2023-04-03T16:07:43;8.00;99.90
53876;DHT22;39789;53.216;5.624;2023-04-03T16:10:10;8.00;99.90
53876;DHT22;39789;53.216;5.624;2023-04-03T16:12:36;8.00;99.90
53876;DHT22;39789;53.216;5.624;2023-04-03T16:15:02;8.00;99.10
53876;DHT22;39789;53.216;5.624;2023-04-03T16:17:28;8.00;99.00
53876;DHT22;39789;53.216;5.624;2023-04-03T16:19:55;7.90;99.20
53876;DHT22;39789;53.216;5.624;2023-04-03T16:22:25;7.80;99.20
53876;DHT22;39789;53.216;5.624;2023-04-03T16:24:51;7.80;99.20
53876;DHT22;39789;53.216;5.624;2023-04-03T16:27:17;7.80;98.70
53876;DHT22;39789;53.216;5.624;2023-04-03T16:29:42;7.80;98.50
53876;DHT22;39789;53.216;5.624;2023-04-03T16:32:08;7.70;98.20
53876;DHT22;39789;53.216;5.624;2023-04-03T16:34:34;7.70;98.60
53876;DHT22;39789;53.216;5.624;2023-04-03T16:37:00;7.60;98.90
53876;DHT22;39789;53.216;5.624;2023-04-03T16:39:25;7.60;98.60
53876;DHT22;39789;53.216;5.624;2023-04-03T16:41:51;7.50;98.60
53876;DHT22;39789;53.216;5.624;2023-04-03T16:44:16;7.50;98.70
53876;DHT22;39789;53.216;5.624;2023-04-03T16:46:42;7.50;99.00
53876;DHT22;39789;53.216;5.624;2023-04-03T16:49:08;7.40;98.90
53876;DHT22;39789;53.216;5.624;2023-04-03T16:51:33;7.40;99.60
53876;DHT22;39789;53.216;5.624;2023-04-03T16:53:59;7.40;99.50
53876;DHT22;39789;53.216;5.624;2023-04-03T16:56:25;7.30;99.30
53876;DHT22;39789;53.216;5.624;2023-04-03T16:58:52;7.30;99.70
53876;DHT22;39789;53.216;5.624;2023-04-03T17:01:20;7.20;99.90
53876;DHT22;39789;53.216;5.624;2023-04-03T17:03:46;7.20;99.90
53876;DHT22;39789;53.216;5.624;2023-04-03T17:06:16;7.10;99.90
53876;DHT22;39789;53.216;5.624;2023-04-03T17:08:43;7.00;99.90
53876;DHT22;39789;53.216;5.624;2023-04-03T17:11:10;7.00;99.90
53876;DHT22;39789;53.216;5.624;2023-04-03T17:13:35;7.00;99.90
53876;DHT22;39789;53.216;5.624;2023-04-03T17:16:02;6.90;99.90
53876;DHT22;39789;53.216;5.624;2023-04-03T17:18:30;6.80;99.90
53876;DHT22;39789;53.216;5.624;2023-04-03T17:20:56;6.70;99.90
53876;DHT22;39789;53.216;5.624;2023-04-03T17:23:24;6.70;99.90
53876;DHT22;39789;53.216;5.624;2023-04-03T17:25:50;6.70;99.90
53876;DHT22;39789;53.216;5.624;2023-04-03T17:28:16;6.60;99.90
53876;DHT22;39789;53.216;5.624;2023-04-03T17:30:42;6.60;99.90
53876;DHT22;39789;53.216;5.624;2023-04-03T17:33:07;6.50;99.90
53876;DHT22;39789;53.216;5.624;2023-04-03T17:35:33;6.50;99.90
53876;DHT22;39789;53.216;5.624;2023-04-03T17:37:58;6.40;99.90
53876;DHT22;39789;53.216;5.624;2023-04-03T17:40:24;6.30;99.90
53876;DHT22;39789;53.216;5.624;2023-04-03T17:42:50;6.30;99.90
53876;DHT22;39789;53.216;5.624;2023-04-03T17:45:15;6.20;99.90
53876;DHT22;39789;53.216;5.624;2023-04-03T17:47:41;6.20;99.90